Time;durP1;ratioP1;P1;durP2;ratioP2;P2;SDS_P1;SDS_P2;PMS_P1;PMS_P2;Temp;Humidity;BMP_temperature;BMP_pressure;BME280_temperature;BME280_humidity;BME280_pressure;Samples;Min_cycle;Max_cycle;Signal;HPM_P1;HPM_P2
2023/02/07 00:03:45;;;;;;;12.95;8.02;;;;;;;0.10;100.00;104052.41;10376460;28;20469;-65
2023/02/07 00:08:46;;;;;;;19.00;7.43;;;;;;;0.05;100.00;104041.91;10376761;28;20042;-65
2023/02/07 00:13:48;;;;;;;17.35;8.95;;;;;;;-0.03;100.00;104028.84;10380219;28;20034;-66
2023/02/07 00:18:48;;;;;;;15.20;8.73;;;;;;;-0.10;100.00;104021.94;10391693;28;20030;-65
2023/02/07 00:23:49;;;;;;;17.23;9.77;;;;;;;-0.08;100.00;104029.91;10375251;28;20062;-65
2023/02/07 00:28:50;;;;;;;23.80;8.63;;;;;;;-0.15;100.00;104028.38;10375222;28;20497;-65
2023/02/07 00:33:52;;;;;;;23.50;10.32;;;;;;;-0.18;100.00;104032.00;10374366;28;20057;-65
2023/02/07 00:38:56;;;;;;;18.98;7.63;;;;;;;-0.19;100.00;104021.38;10375550;28;20096;-65
2023/02/07 00:43:57;;;;;;;19.92;9.60;;;;;;;-0.26;100.00;104024.25;10374680;28;20041;-65
2023/02/07 00:48:57;;;;;;;15.82;9.23;;;;;;;-0.27;100.00;104019.84;10374726;28;20493;-65
2023/02/07 00:53:58;;;;;;;25.00;8.45;;;;;;;-0.26;100.00;104016.25;10376401;28;20486;-66
2023/02/07 00:58:58;;;;;;;15.20;10.10;;;;;;;-0.21;100.00;104013.47;10372840;28;20054;-65
2023/02/07 01:03:59;;;;;;;26.40;8.85;;;;;;;-0.19;100.00;104011.63;10374386;28;20022;-65
2023/02/07 01:09:00;;;;;;;13.25;9.43;;;;;;;-0.24;100.00;104009.09;10373196;28;20029;-65
2023/02/07 01:14:01;;;;;;;15.02;9.98;;;;;;;-0.19;100.00;104008.06;10373142;28;20183;-66
2023/02/07 01:19:06;;;;;;;13.77;9.43;;;;;;;-0.12;100.00;104002.50;10375711;28;20033;-66
2023/02/07 01:24:06;;;;;;;17.90;9.18;;;;;;;-0.22;100.00;104016.16;10380789;28;20484;-65
2023/02/07 01:29:07;;;;;;;13.52;8.98;;;;;;;-0.29;100.00;104015.50;10381321;28;20030;-65
2023/02/07 01:34:10;;;;;;;16.92;9.52;;;;;;;-0.32;100.00;104011.16;10380913;28;20127;-66
2023/02/07 01:39:10;;;;;;;16.77;8.10;;;;;;;-0.31;100.00;104018.22;10396713;28;20121;-65
2023/02/07 01:44:23;;;;;;;13.45;7.28;;;;;;;-0.34;100.00;104034.28;10397172;28;20029;-65
2023/02/07 01:49:25;;;;;;;18.05;9.43;;;;;;;-0.43;100.00;104021.28;10381090;28;20120;-65
2023/02/07 01:54:30;;;;;;;16.65;8.40;;;;;;;-0.32;100.00;104032.47;10380357;28;20029;-66
2023/02/07 01:59:31;;;;;;;11.00;7.70;;;;;;;-0.33;100.00;104036.03;10379671;28;20030;-65
2023/02/07 02:04:32;;;;;;;9.10;6.97;;;;;;;-0.42;100.00;104032.78;10380410;28;20037;-65
2023/02/07 02:09:32;;;;;;;16.73;8.63;;;;;;;-0.37;100.00;104037.06;10379713;28;20056;-66
2023/02/07 02:14:39;;;;;;;18.33;9.35;;;;;;;-0.34;100.00;104030.78;10380653;28;20053;-65
2023/02/07 02:19:57;;;;;;;;;;;;;;;-0.31;100.00;104034.19;10379271;28;20474;-66
2023/02/07 02:25:20;;;;;;;20.52;8.75;;;;;;;-0.28;100.00;104026.13;10381288;28;20261;-66
2023/02/07 02:30:46;;;;;;;20.27;9.18;;;;;;;-0.27;100.00;104017.19;10360875;28;20069;-66
2023/02/07 02:36:09;;;;;;;14.35;9.43;;;;;;;-0.21;100.00;104023.25;10380685;28;20053;-65
2023/02/07 02:41:22;;;;;;;23.30;8.80;;;;;;;-0.26;100.00;104016.25;10393944;28;20030;-65
2023/02/07 02:46:26;;;;;;;28.00;9.15;;;;;;;-0.38;100.00;104016.69;10394042;28;20034;-66
2023/02/07 02:51:30;;;;;;;13.75;8.75;;;;;;;-0.44;100.00;104022.22;10379141;28;20196;-65
2023/02/07 02:56:51;;;;;;;17.33;10.48;;;;;;;-0.43;100.00;104023.06;10377496;28;20045;-65
2023/02/07 03:02:04;;;;;;;22.63;9.23;;;;;;;-0.42;100.00;104000.84;10392574;28;20045;-65
2023/02/07 03:07:08;;;;;;;20.45;9.55;;;;;;;-0.53;100.00;103995.88;10378678;28;20033;-65
2023/02/07 03:12:18;;;;;;;16.20;8.52;;;;;;;-0.63;100.00;103989.97;10393200;28;20036;-65
2023/02/07 03:17:29;;;;;;;23.83;9.77;;;;;;;-0.51;100.00;103986.03;10377081;28;20029;-65
2023/02/07 03:22:29;;;;;;;12.23;9.43;;;;;;;-0.52;100.00;103994.94;10376965;28;20034;-65
2023/02/07 03:27:30;;;;;;;22.38;9.35;;;;;;;-0.60;100.00;103983.69;10376131;28;20052;-66
2023/02/07 03:32:33;;;;;;;19.95;10.18;;;;;;;-0.56;100.00;103983.53;10376523;28;20046;-65
2023/02/07 03:37:40;;;;;;;18.15;9.77;;;;;;;-0.53;100.00;103977.25;10392164;28;20044;-65
2023/02/07 03:42:50;;;;;;;;;;;;;;;-0.62;100.00;103978.41;10391997;28;20087;-65
2023/02/07 03:47:51;;;;;;;14.77;7.82;;;;;;;-0.71;100.00;103982.22;10391372;28;20409;-65
2023/02/07 03:52:51;;;;;;;13.07;9.35;;;;;;;-0.75;100.00;103995.69;10377058;28;20034;-65
2023/02/07 03:57:51;;;;;;;17.63;9.23;;;;;;;-0.75;100.00;103991.22;10375015;28;20129;-66
2023/02/07 04:02:52;;;;;;;16.75;9.45;;;;;;;-0.72;100.00;103992.91;10376030;28;20051;-66
2023/02/07 04:07:52;;;;;;;16.30;11.30;;;;;;;-0.85;100.00;103988.91;10376989;28;20034;-65
2023/02/07 04:12:53;;;;;;;12.07;9.50;;;;;;;-0.41;100.00;104000.81;10391573;28;20084;-65
2023/02/07 04:17:53;;;;;;;19.27;10.40;;;;;;;-0.25;100.00;103987.88;10376770;28;20092;-66
2023/02/07 04:22:54;;;;;;;12.93;9.82;;;;;;;-0.21;100.00;103993.97;10374735;28;20382;-66
2023/02/07 04:27:54;;;;;;;16.73;11.32;;;;;;;-0.41;100.00;103992.81;10376465;28;20038;-66
2023/02/07 04:32:54;;;;;;;12.38;11.02;;;;;;;-0.47;100.00;103991.22;10374632;28;20483;-66
2023/02/07 04:37:55;;;;;;;21.88;10.63;;;;;;;-0.57;100.00;103994.25;10374394;28;20065;-66
2023/02/07 04:42:55;;;;;;;17.80;10.50;;;;;;;-0.61;100.00;103989.91;10395853;28;20381;-66
2023/02/07 04:47:55;;;;;;;16.05;10.48;;;;;;;-0.64;100.00;103998.00;10391816;28;20077;-66
2023/02/07 04:52:56;;;;;;;13.45;10.07;;;;;;;-0.63;100.00;103986.44;10378230;28;20042;-66
2023/02/07 04:57:56;;;;;;;27.58;12.82;;;;;;;-0.54;100.00;103980.84;10365308;28;20389;-65
2023/02/07 05:02:57;;;;;;;17.92;13.48;;;;;;;-0.47;100.00;103969.06;10381501;28;20034;-66
2023/02/07 05:07:57;;;;;;;21.23;13.38;;;;;;;-0.57;100.00;103979.13;10382553;28;20030;-66
2023/02/07 05:12:57;;;;;;;24.10;13.32;;;;;;;-0.70;100.00;103983.13;10382398;28;20065;-66
2023/02/07 05:17:58;;;;;;;23.08;13.60;;;;;;;-0.77;100.00;103982.41;10382900;28;20069;-66
2023/02/07 05:22:58;;;;;;;19.55;13.07;;;;;;;-0.85;100.00;103986.25;10382064;28;20068;-65
2023/02/07 05:27:59;;;;;;;30.33;13.35;;;;;;;-0.83;100.00;103995.03;10381988;28;20481;-66
2023/02/07 05:33:02;;;;;;;23.33;13.13;;;;;;;-0.88;100.00;103991.66;10380716;28;20085;-66
2023/02/07 05:38:05;;;;;;;16.52;11.73;;;;;;;-1.03;100.00;103992.97;10380327;28;20069;-65
2023/02/07 05:43:05;;;;;;;25.13;13.48;;;;;;;-1.11;100.00;103987.91;10395680;28;20061;-65
2023/02/07 05:48:06;;;;;;;21.83;14.70;;;;;;;-1.01;100.00;103993.81;10381259;28;20026;-65
2023/02/07 05:53:06;;;;;;;17.75;12.95;;;;;;;-1.02;100.00;104003.59;10363297;28;20041;-65
2023/02/07 05:58:07;;;;;;;26.48;15.80;;;;;;;-1.09;100.00;103985.19;10380076;28;20421;-65
2023/02/07 06:03:07;;;;;;;23.65;14.68;;;;;;;-1.07;100.00;103997.53;10379828;28;20045;-66
2023/02/07 06:08:08;;;;;;;27.77;17.77;;;;;;;-0.85;100.00;103999.53;10380240;28;20069;-65
2023/02/07 06:13:08;;;;;;;30.83;16.58;;;;;;;-0.57;100.00;103996.91;10378837;28;20045;-65
2023/02/07 06:18:08;;;;;;;24.38;15.73;;;;;;;-0.37;100.00;104005.09;10380045;28;20042;-65
2023/02/07 06:23:09;;;;;;;39.72;18.55;;;;;;;-0.25;100.00;104012.69;10380400;28;20030;-66
2023/02/07 06:28:09;;;;;;;30.50;20.27;;;;;;;-0.09;100.00;104028.19;10313482;28;20516;-65
2023/02/07 06:33:10;;;;;;;56.55;26.33;;;;;;;0.04;100.00;104015.31;10378666;28;20141;-66
2023/02/07 06:38:13;;;;;;;46.80;25.33;;;;;;;0.08;100.00;104015.16;10379374;28;20058;-65
2023/02/07 06:43:14;;;;;;;45.17;26.05;;;;;;;0.11;100.00;104015.03;10379806;28;20034;-65
2023/02/07 06:48:14;;;;;;;42.35;28.88;;;;;;;0.13;100.00;104021.19;10378899;28;20423;-65
2023/02/07 06:53:14;;;;;;;49.05;30.55;;;;;;;0.11;100.00;104016.84;10381650;28;20426;-66
2023/02/07 06:58:15;;;;;;;49.05;28.88;;;;;;;0.15;100.00;104015.81;10381582;28;20038;-65
2023/02/07 07:03:15;;;;;;;53.42;29.05;;;;;;;0.15;100.00;104016.66;10377449;28;20034;-65
2023/02/07 07:08:17;;;;;;;53.00;35.45;;;;;;;0.13;100.00;104029.19;10378142;28;20064;-65
2023/02/07 07:13:18;;;;;;;59.50;33.85;;;;;;;0.14;100.00;104024.72;10377598;28;20057;-65
2023/02/07 07:18:18;;;;;;;39.60;24.38;;;;;;;0.16;100.00;104034.41;10359626;28;20061;-65
2023/02/07 07:23:18;;;;;;;70.55;28.85;;;;;;;0.17;100.00;104038.81;10375334;28;20498;-65
2023/02/07 07:28:19;;;;;;;58.15;29.60;;;;;;;0.21;100.00;104053.78;10378713;28;20041;-65
2023/02/07 07:33:19;;;;;;;39.90;23.67;;;;;;;0.27;100.00;104059.81;10377065;28;20054;-65
2023/02/07 07:38:20;;;;;;;66.00;28.05;;;;;;;0.22;100.00;104050.22;10377087;28;20073;-65
2023/02/07 07:43:20;;;;;;;52.97;30.65;;;;;;;0.19;100.00;104057.41;10390971;28;20030;-65
2023/02/07 07:48:21;;;;;;;38.30;26.63;;;;;;;0.21;100.00;104068.91;10376148;28;20045;-65
2023/02/07 07:53:22;;;;;;;41.45;25.25;;;;;;;0.23;100.00;104075.06;10376289;28;20049;-65
2023/02/07 07:58:23;;;;;;;50.65;29.08;;;;;;;0.20;100.00;104072.50;10375968;28;20038;-65
2023/02/07 08:03:23;;;;;;;46.13;26.70;;;;;;;0.12;100.00;104069.19;10392616;28;20136;-65
2023/02/07 08:08:24;;;;;;;37.92;23.02;;;;;;;0.16;100.00;104070.84;10375124;28;20038;-65
2023/02/07 08:13:24;;;;;;;32.38;25.33;;;;;;;0.14;100.00;104070.91;10374196;28;20037;-65
2023/02/07 08:18:24;;;;;;;31.15;22.45;;;;;;;0.17;100.00;104068.13;10375283;28;20129;-65
2023/02/07 08:23:25;;;;;;;28.85;23.95;;;;;;;0.22;100.00;104074.19;10375166;28;20359;-65
2023/02/07 08:28:25;;;;;;;51.90;25.38;;;;;;;0.16;100.00;104085.06;10373585;28;20037;-65
2023/02/07 08:33:26;;;;;;;38.63;22.52;;;;;;;0.26;100.00;104071.41;10376884;28;20121;-65
2023/02/07 08:38:26;;;;;;;31.23;24.65;;;;;;;0.24;100.00;104066.13;10375167;28;20474;-65
2023/02/07 08:43:27;;;;;;;35.75;22.25;;;;;;;0.33;100.00;104067.63;10373596;28;20382;-65
2023/02/07 08:48:28;;;;;;;32.63;21.95;;;;;;;0.54;100.00;104071.31;10373979;28;20049;-65
2023/02/07 08:53:28;;;;;;;29.10;22.13;;;;;;;0.50;100.00;104075.88;10376725;28;20038;-65
2023/02/07 08:58:29;;;;;;;39.72;23.95;;;;;;;0.36;100.00;104076.38;10374122;28;20117;-65
2023/02/07 09:03:29;;;;;;;35.30;23.95;;;;;;;0.37;100.00;104079.91;10376086;28;20482;-68
2023/02/07 09:08:30;;;;;;;43.28;27.98;;;;;;;0.53;100.00;104086.44;10379073;28;20030;-65
2023/02/07 09:13:30;;;;;;;48.63;26.10;;;;;;;0.69;100.00;104074.31;10374467;28;20065;-65
2023/02/07 09:18:30;;;;;;;40.05;27.25;;;;;;;0.77;100.00;104071.38;10372693;28;20042;-65
2023/02/07 09:23:34;;;;;;;40.63;25.75;;;;;;;0.78;100.00;104070.44;10372211;28;20030;-65
2023/02/07 09:28:35;;;;;;;42.60;26.30;;;;;;;0.67;100.00;104073.50;10357258;28;20026;-65
2023/02/07 09:33:35;;;;;;;50.63;32.13;;;;;;;0.83;100.00;104078.25;10374200;28;20049;-66
2023/02/07 09:38:36;;;;;;;44.92;27.80;;;;;;;0.92;100.00;104068.13;10372560;28;20392;-65
2023/02/07 09:43:54;;;;;;;40.78;26.42;;;;;;;1.14;100.00;104080.69;10380783;28;20037;-66
2023/02/07 09:49:05;;;;;;;51.08;33.42;;;;;;;1.47;100.00;104074.97;10380958;28;20030;-65
2023/02/07 09:54:11;;;;;;;52.80;35.22;;;;;;;1.67;100.00;104066.19;10396542;28;20076;-65
2023/02/07 09:59:17;;;;;;;58.05;35.13;;;;;;;2.30;100.00;104048.41;10379000;28;20077;-65
2023/02/07 10:04:21;;;;;;;81.30;40.72;;;;;;;3.96;100.00;104054.97;10379367;28;20037;-65
2023/02/07 10:09:32;;;;;;;91.05;51.47;;;;;;;5.10;100.00;104049.88;10380370;28;20030;-65
2023/02/07 10:15:09;;;;;;;87.70;50.88;;;;;;;5.61;100.00;104047.91;10394775;28;20084;-65
2023/02/07 10:20:43;;;;;;;89.28;52.65;;;;;;;5.52;100.00;104067.22;10375944;28;20371;-65
2023/02/07 10:25:54;;;;;;;72.45;46.78;;;;;;;5.68;100.00;104070.81;10378715;28;20037;-65
2023/02/07 10:30:57;;;;;;;61.45;41.50;;;;;;;5.03;100.00;104086.06;10394488;28;20041;-65
2023/02/07 10:35:57;;;;;;;52.08;39.10;;;;;;;5.44;100.00;104073.06;10378390;28;20046;-65
2023/02/07 10:41:21;;;;;;;51.90;35.97;;;;;;;6.27;100.00;104079.06;10376705;28;20034;-65
2023/02/07 10:46:22;;;;;;;40.55;27.90;;;;;;;6.73;100.00;104068.19;10393875;28;20037;-65
2023/02/07 10:51:30;;;;;;;32.58;22.77;;;;;;;6.98;100.00;104081.00;10393941;28;20064;-65
2023/02/07 10:56:31;;;;;;;36.55;23.25;;;;;;;7.35;100.00;104082.25;10376731;28;20096;-65
2023/02/07 11:01:32;;;;;;;34.10;21.17;;;;;;;7.35;100.00;104076.00;10376422;28;20118;-65
2023/02/07 11:06:33;;;;;;;34.80;23.98;;;;;;;7.69;100.00;104075.53;10392494;28;20080;-65
2023/02/07 11:11:35;;;;;;;27.85;20.52;;;;;;;7.66;100.00;104072.19;10393348;28;20088;-65
2023/02/07 11:16:36;;;;;;;30.55;22.63;;;;;;;7.63;100.00;104058.91;10376099;28;20358;-65
2023/02/07 11:21:43;;;;;;;34.60;22.40;;;;;;;7.57;100.00;104060.16;10379805;28;20117;-65
2023/02/07 11:26:53;;;;;;;30.70;18.67;;;;;;;7.78;100.00;104059.69;10376481;28;20489;-65
2023/02/07 11:31:54;;;;;;;37.78;20.45;;;;;;;7.63;100.00;104048.13;10375744;28;20124;-65
2023/02/07 11:37:08;;;;;;;29.60;19.52;;;;;;;7.82;100.00;104034.28;10392751;28;20121;-65
2023/02/07 11:42:14;;;;;;;28.90;20.13;;;;;;;8.04;100.00;104026.47;10375744;28;20032;-65
2023/02/07 11:47:16;;;;;;;32.20;20.60;;;;;;;8.52;100.00;104025.88;10358279;28;20096;-65
2023/02/07 11:52:17;;;;;;;27.85;20.83;;;;;;;8.49;100.00;104018.91;10375369;28;20030;-65
2023/02/07 11:57:17;;;;;;;27.42;19.67;;;;;;;8.42;100.00;104011.31;10375118;28;20035;-65
2023/02/07 12:02:24;;;;;;;38.05;19.73;;;;;;;8.09;100.00;104012.63;10376549;28;20382;-65
2023/02/07 12:07:28;;;;;;;34.67;21.70;;;;;;;8.10;100.00;104008.97;10390873;28;20034;-65
2023/02/07 12:12:43;;;;;;;32.35;19.92;;;;;;;8.40;100.00;104010.56;10373933;28;20030;-65
2023/02/07 12:18:02;;;;;;;31.73;19.88;;;;;;;8.76;100.00;104002.56;10373940;28;20616;-65
2023/02/07 12:23:06;;;;;;;29.10;17.48;;;;;;;9.21;100.00;103992.09;10375020;28;20026;-66
2023/02/07 12:28:35;;;;;;;30.88;18.80;;;;;;;9.25;100.00;103995.41;10376273;28;20034;-65
2023/02/07 12:33:47;;;;;;;27.33;18.17;;;;;;;8.95;100.00;104007.50;10374643;28;20394;-65
2023/02/07 12:38:53;;;;;;;25.65;18.67;;;;;;;9.02;100.00;104006.06;10373500;28;20037;-65
2023/02/07 12:44:03;;;;;;;26.77;18.65;;;;;;;9.19;100.00;103999.47;10373857;28;20123;-65
2023/02/07 12:49:48;;;;;;;34.13;18.27;;;;;;;9.13;100.00;103993.66;10374420;28;20083;-65
2023/02/07 12:54:54;;;;;;;31.15;17.00;;;;;;;8.84;100.00;103992.06;10358613;28;20095;-65
2023/02/07 13:00:11;;;;;;;30.13;18.52;;;;;;;8.53;100.00;103989.81;10375400;28;20462;-65
2023/02/07 13:05:22;;;;;;;20.88;16.15;;;;;;;8.55;100.00;103983.34;10373501;28;20117;-65
2023/02/07 13:10:44;;;;;;;19.42;14.45;;;;;;;8.45;100.00;103989.50;10373707;28;20124;-65
2023/02/07 13:16:15;;;;;;;23.73;15.48;;;;;;;8.15;100.00;103975.28;10376319;28;20030;-65
2023/02/07 13:21:15;;;;;;;28.08;15.73;;;;;;;8.46;100.00;103975.03;10382113;28;20081;-65
2023/02/07 13:26:20;;;;;;;19.53;12.23;;;;;;;8.38;100.00;103980.94;10380424;28;20053;-65
2023/02/07 13:31:39;;;;;;;24.40;13.95;;;;;;;8.32;100.00;103982.22;10380461;28;20267;-65
2023/02/07 13:36:44;;;;;;;18.48;14.30;;;;;;;8.10;100.00;103966.66;10396670;28;20401;-65
2023/02/07 13:41:48;;;;;;;20.60;14.45;;;;;;;7.74;100.00;103955.69;10379703;28;20112;-66
2023/02/07 13:47:10;;;;;;;22.40;15.10;;;;;;;7.44;100.00;103967.56;10396255;28;20116;-65
2023/02/07 13:52:19;;;;;;;19.85;11.38;;;;;;;6.83;100.00;103961.63;10395801;28;20054;-65
2023/02/07 14:03:02;;;;;;;21.52;14.55;;;;;;;6.20;100.00;103967.38;10379454;28;20029;-65
2023/02/07 14:08:05;;;;;;;16.90;10.73;;;;;;;6.30;100.00;103973.91;10379966;28;20089;-65
2023/02/07 14:13:05;;;;;;;11.82;8.48;;;;;;;6.18;100.00;103967.44;10378432;28;20042;-65
2023/02/07 14:18:26;;;;;;;15.48;11.00;;;;;;;5.87;100.00;103970.22;10378563;28;20033;-65
2023/02/07 14:23:46;;;;;;;12.32;8.60;;;;;;;5.78;100.00;103975.22;10380715;28;20038;-65
2023/02/07 14:28:47;;;;;;;13.23;10.52;;;;;;;5.76;100.00;103981.63;10391435;28;20096;-65
2023/02/07 14:34:10;;;;;;;11.30;7.88;;;;;;;5.63;100.00;103972.53;10378243;28;20104;-65
2023/02/07 14:39:10;;;;;;;9.00;6.60;;;;;;;5.20;100.00;103969.63;10379098;28;20075;-65
2023/02/07 14:44:29;;;;;;;15.57;10.68;;;;;;;5.31;100.00;103981.50;10378875;28;20180;-65
2023/02/07 14:49:37;;;;;;;13.02;8.48;;;;;;;5.34;100.00;103967.91;10377091;28;20030;-65
2023/02/07 14:54:44;;;;;;;7.00;5.80;;;;;;;5.35;100.00;103966.94;10377386;28;20033;-65
2023/02/07 15:00:03;;;;;;;9.43;6.13;;;;;;;5.23;100.00;103964.97;10377752;28;20465;-65
2023/02/07 15:05:12;;;;;;;6.63;5.75;;;;;;;4.91;100.00;103964.06;10377187;28;20040;-66
2023/02/07 15:10:20;;;;;;;11.40;6.10;;;;;;;4.71;100.00;103973.22;10377959;28;20049;-65
2023/02/07 15:16:03;;;;;;;10.95;7.55;;;;;;;4.66;100.00;103956.53;10377157;28;20030;-65
2023/02/07 15:21:04;;;;;;;16.10;9.77;;;;;;;4.49;100.00;103951.19;10351945;28;20389;-65
2023/02/07 15:26:06;;;;;;;19.08;11.50;;;;;;;4.59;100.00;103942.53;10375807;28;20030;-65
2023/02/07 15:31:16;;;;;;;19.83;13.45;;;;;;;4.57;100.00;103939.09;10391906;28;20045;-65
2023/02/07 15:36:36;;;;;;;19.42;14.90;;;;;;;4.45;100.00;103949.63;10375204;28;20050;-65
2023/02/07 15:41:37;;;;;;;12.77;11.38;;;;;;;4.01;100.00;103959.06;10376592;28;20094;-65
2023/02/07 15:46:44;;;;;;;21.25;15.07;;;;;;;3.87;100.00;103948.19;10376208;28;20072;-65
2023/02/07 15:51:45;;;;;;;19.33;12.18;;;;;;;3.65;100.00;103957.31;10378097;28;20033;-66
2023/02/07 15:56:47;;;;;;;19.23;14.18;;;;;;;3.49;100.00;103953.66;10376575;28;20040;-65
2023/02/07 16:01:52;;;;;;;17.02;15.10;;;;;;;3.28;100.00;103963.59;10376015;28;20061;-65
2023/02/07 16:06:54;;;;;;;21.25;12.95;;;;;;;3.13;100.00;103956.34;10374351;28;20433;-65
2023/02/07 16:11:55;;;;;;;17.70;14.80;;;;;;;3.06;100.00;103961.09;10390140;28;20099;-65
2023/02/07 16:16:56;;;;;;;20.65;13.48;;;;;;;2.83;100.00;103964.00;10374283;28;20076;-65
2023/02/07 16:22:11;;;;;;;22.88;15.20;;;;;;;2.71;100.00;103976.13;10375382;28;20432;-65
2023/02/07 16:27:19;;;;;;;21.55;15.18;;;;;;;2.68;100.00;103974.50;10373809;28;20041;-65
2023/02/07 16:32:19;;;;;;;17.30;13.23;;;;;;;2.58;100.00;103975.81;10373620;28;20394;-65
2023/02/07 16:37:20;;;;;;;17.10;13.95;;;;;;;2.52;100.00;103982.34;10374219;28;20079;-66
2023/02/07 16:42:20;;;;;;;18.75;13.93;;;;;;;2.41;100.00;103983.75;10357161;28;20048;-65
2023/02/07 16:47:22;;;;;;;16.48;13.05;;;;;;;2.28;100.00;103989.63;10375862;28;20030;-65
2023/02/07 16:52:22;;;;;;;18.25;14.77;;;;;;;2.22;100.00;103983.69;10372561;28;20116;-65
2023/02/07 16:57:23;;;;;;;20.02;14.90;;;;;;;2.17;100.00;103991.94;10389542;28;20125;-65
2023/02/07 17:02:24;;;;;;;24.98;15.88;;;;;;;2.12;100.00;103995.72;10376210;28;20048;-65
2023/02/07 17:07:24;;;;;;;18.17;13.80;;;;;;;2.00;100.00;104000.66;10389416;28;20454;-66
2023/02/07 17:12:25;;;;;;;22.08;14.85;;;;;;;1.94;100.00;103995.56;10372617;28;20113;-65
2023/02/07 17:17:25;;;;;;;22.58;15.55;;;;;;;1.90;100.00;103999.31;10389976;28;20042;-65
2023/02/07 17:22:26;;;;;;;21.88;14.75;;;;;;;1.80;100.00;103997.97;10373522;28;20041;-65
2023/02/07 17:27:26;;;;;;;20.88;14.48;;;;;;;1.73;100.00;103999.16;10372658;28;20034;-65
2023/02/07 17:32:26;;;;;;;21.67;14.13;;;;;;;1.69;100.00;103995.75;10372524;28;20041;-65
2023/02/07 17:37:27;;;;;;;20.75;14.13;;;;;;;1.62;100.00;103999.56;10374270;28;20437;-65
2023/02/07 17:42:27;;;;;;;19.92;15.50;;;;;;;1.59;100.00;103992.53;10373064;28;20049;-65
2023/02/07 17:47:28;;;;;;;28.52;17.55;;;;;;;1.49;100.00;103993.88;10374166;28;20110;-65
2023/02/07 17:52:28;;;;;;;18.83;14.27;;;;;;;1.45;100.00;103991.41;10374282;28;20129;-65
2023/02/07 17:57:29;;;;;;;20.65;14.07;;;;;;;1.38;100.00;103996.13;10372304;28;20386;-65
2023/02/07 18:02:31;;;;;;;27.42;14.90;;;;;;;1.37;100.00;103999.69;10379311;28;20042;-65
2023/02/07 18:07:31;;;;;;;22.15;15.38;;;;;;;1.30;100.00;104003.53;10387253;28;20065;-65
2023/02/07 18:12:32;;;;;;;20.05;14.45;;;;;;;1.26;100.00;104001.94;10380792;28;20478;-65
2023/02/07 18:17:32;;;;;;;27.10;16.10;;;;;;;1.25;100.00;104001.06;10380653;28;20125;-65
2023/02/07 18:22:33;;;;;;;23.55;16.13;;;;;;;1.19;100.00;103995.09;10395761;28;20037;-65
2023/02/07 18:27:33;;;;;;;27.08;18.85;;;;;;;1.15;100.00;104000.56;10378429;28;20046;-65
2023/02/07 18:32:34;;;;;;;23.75;16.80;;;;;;;1.01;100.00;103992.19;10379995;28;20044;-65
2023/02/07 18:37:34;;;;;;;26.45;15.77;;;;;;;0.81;100.00;103989.44;10395167;28;20026;-65
2023/02/07 18:42:35;;;;;;;18.92;15.18;;;;;;;0.72;100.00;103984.44;10377962;28;20061;-65
2023/02/07 18:47:35;;;;;;;23.75;16.52;;;;;;;0.64;100.00;103982.94;10378279;28;20079;-65
2023/02/07 18:52:35;;;;;;;29.13;15.98;;;;;;;0.66;100.00;103986.41;10377444;28;20076;-65
2023/02/07 18:57:36;;;;;;;20.40;16.23;;;;;;;0.62;100.00;103984.78;10378135;28;20168;-65
2023/02/07 19:02:36;;;;;;;27.50;18.17;;;;;;;0.67;100.00;103990.84;10377252;28;20120;-65
2023/02/07 19:07:37;;;;;;;29.63;20.95;;;;;;;0.67;100.00;103982.81;10378510;28;20033;-64
2023/02/07 19:12:38;;;;;;;26.38;18.75;;;;;;;0.60;100.00;103983.97;10392754;28;20057;-65
2023/02/07 19:17:38;;;;;;;28.42;17.27;;;;;;;0.56;100.00;103978.81;10376658;28;20040;-65
2023/02/07 19:22:38;;;;;;;27.42;18.17;;;;;;;0.59;100.00;103982.22;10376139;28;20389;-65
2023/02/07 19:27:39;;;;;;;23.15;16.42;;;;;;;0.53;100.00;103978.91;10359724;28;20053;-65
2023/02/07 19:32:39;;;;;;;20.27;16.88;;;;;;;0.49;100.00;103987.97;10393428;28;20046;-65
2023/02/07 19:37:40;;;;;;;23.08;17.52;;;;;;;0.39;100.00;103979.44;10377134;28;20458;-64
2023/02/07 19:42:40;;;;;;;21.63;13.55;;;;;;;0.26;100.00;103976.34;10392072;28;20069;-65
2023/02/07 19:47:41;;;;;;;21.77;14.95;;;;;;;0.20;100.00;103985.41;10376639;28;20029;-65
2023/02/07 19:52:41;;;;;;;21.02;16.95;;;;;;;0.11;100.00;103985.72;10376593;28;20065;-65
2023/02/07 19:57:41;;;;;;;24.45;15.50;;;;;;;-0.08;100.00;103988.16;10392152;28;20117;-65
2023/02/07 20:02:42;;;;;;;20.30;16.30;;;;;;;-0.28;100.00;104004.81;10377022;28;20042;-66
2023/02/07 20:07:42;;;;;;;20.08;15.57;;;;;;;-0.33;100.00;104000.56;10377650;28;20477;-65
2023/02/07 20:12:43;;;;;;;24.77;15.27;;;;;;;-0.50;100.00;104001.97;10375604;28;20231;-64
2023/02/07 20:17:44;;;;;;;24.27;17.10;;;;;;;-0.63;100.00;104010.41;10391546;28;20041;-65
2023/02/07 20:22:44;;;;;;;25.52;17.10;;;;;;;-0.64;100.00;104013.97;10377733;28;20049;-65
2023/02/07 20:27:45;;;;;;;31.70;16.75;;;;;;;-0.72;100.00;104007.09;10375484;28;20033;-65
2023/02/07 20:32:45;;;;;;;25.15;17.65;;;;;;;-0.68;100.00;104009.66;10390077;28;20046;-65
2023/02/07 20:37:45;;;;;;;19.45;14.77;;;;;;;-0.75;100.00;104008.97;10376494;28;20029;-65
2023/02/07 20:42:46;;;;;;;23.38;14.57;;;;;;;-0.78;100.00;104007.28;10373779;28;20065;-65
2023/02/07 20:47:46;;;;;;;28.65;16.85;;;;;;;-0.83;100.00;104008.34;10375222;28;20042;-65
2023/02/07 20:52:47;;;;;;;23.65;18.23;;;;;;;-0.97;100.00;104012.28;10374811;28;20474;-65
2023/02/07 20:57:47;;;;;;;25.70;17.10;;;;;;;-1.08;100.00;104003.78;10374591;28;20108;-65
2023/02/07 21:02:48;;;;;;;25.30;17.42;;;;;;;-1.14;100.00;104000.44;10374688;28;20445;-65
2023/02/07 21:07:48;;;;;;;22.70;16.52;;;;;;;-1.20;100.00;104002.34;10390712;28;20061;-65
2023/02/07 21:12:48;;;;;;;26.10;18.77;;;;;;;-1.23;100.00;103989.13;10375663;28;20076;-65
2023/02/07 21:17:49;;;;;;;28.08;16.83;;;;;;;-1.22;100.00;103998.84;10374439;28;20034;-67
2023/02/07 21:22:49;;;;;;;26.60;19.35;;;;;;;-1.19;100.00;103993.44;10374736;28;20034;-65
2023/02/07 21:27:50;;;;;;;26.45;16.55;;;;;;;-1.20;100.00;103988.19;10374621;28;20123;-65
2023/02/07 21:32:50;;;;;;;31.15;17.17;;;;;;;-1.17;100.00;103980.09;10389915;28;20053;-65
2023/02/07 21:37:50;;;;;;;29.60;17.85;;;;;;;-1.29;100.00;103973.34;10379403;28;20061;-64
2023/02/07 21:42:51;;;;;;;31.50;19.40;;;;;;;-1.31;100.00;103969.00;10380545;28;20482;-65
2023/02/07 21:47:51;;;;;;;28.30;19.25;;;;;;;-1.31;100.00;103969.88;10381936;28;20029;-65
2023/02/07 21:52:52;;;;;;;33.90;19.45;;;;;;;-1.32;100.00;103961.94;10381200;28;20034;-65
2023/02/07 21:57:52;;;;;;;29.50;22.15;;;;;;;-1.31;100.00;103961.91;10397318;28;20066;-65
2023/02/07 22:02:52;;;;;;;24.38;15.57;;;;;;;-1.38;100.00;103954.13;10379070;28;20041;-64
2023/02/07 22:07:53;;;;;;;30.70;19.52;;;;;;;-1.39;100.00;103961.25;10379921;28;20124;-65
2023/02/07 22:12:53;;;;;;;26.50;17.80;;;;;;;-1.41;100.00;103960.41;10380988;28;20069;-65
2023/02/07 22:17:54;;;;;;;29.42;19.00;;;;;;;-1.52;100.00;103966.03;10380456;28;20128;-65
2023/02/07 22:22:55;;;;;;;30.60;17.85;;;;;;;-1.53;100.00;103955.44;10379604;28;20065;-65
2023/02/07 22:27:55;;;;;;;23.52;18.70;;;;;;;-1.49;100.00;103975.72;10379937;28;20490;-65
2023/02/07 22:32:55;;;;;;;31.42;21.23;;;;;;;-1.43;100.00;103955.16;10379059;28;20145;-65
2023/02/07 22:37:56;;;;;;;30.67;21.13;;;;;;;-1.36;100.00;103960.28;10381787;28;20037;-65
2023/02/07 22:42:56;;;;;;;21.58;17.60;;;;;;;-1.52;100.00;103959.88;10379650;28;20088;-65
2023/02/07 22:47:57;;;;;;;26.58;18.77;;;;;;;-1.53;100.00;103955.44;10377113;28;20088;-65